»·PEaware :: DFGCW KPDX-KSEA

DFGCW :: KPDX-KSEA

FLIGHT INFORMATION

Flight Status: Arrived
Operator: Unknown
More flights by this operator :: More flights under this callsign
Pilot: Klaus A. (15485)
Aircraft: PILATUS PC-12 EAGLE
(PC12)
More flights by this aircraft type
Origin: KPDX Portland Intl
United States
Destination: KSEA Seattle-Tacoma Intl
United States
More flights between these airports :: More routes between these airports
Route: PTLD1 COUGA KRIEG HAWKZ6
File this flight plan on PilotEdge
Remarks: PBN / D2 DOF / 180802 REG / DFGCW PER / B RMK / TCAS SIMBRIEF
Altitude:
(Current/Filed)
16,000ft
Speed:
(Current/Filed)
270kts
Departed: 02-Aug-18 09:12 AM
Arrived: 02-Aug-18 09:57 AM
Distance/Time
Traveled:
112nm/0:45
Distance/Time
To Go:
Arrived

Flight Plot

Page will automatically refresh every two minutes.

Flight plan parsing failed; only flown route is shown


Map Options




Map Legend


Flown Route
Filed Route
Departure Airport
Arrival Airport
Navaid (VOR, NDB)
Fix

Horizontal Profiles

Position Reports

Time Latitude Longitude Heading Altitude Ground
Speed
02-Aug-18 08:45 45.587620 -122.584005 209 29ft 0kts
02-Aug-18 08:46 45.587620 -122.584005 209 29ft 0kts
02-Aug-18 08:47 45.587620 -122.584005 209 29ft 0kts
02-Aug-18 08:48 45.587620 -122.584005 209 29ft 0kts
02-Aug-18 08:49 45.587620 -122.584005 209 29ft 0kts
02-Aug-18 08:50 45.587620 -122.584005 209 29ft 0kts
02-Aug-18 08:51 45.587620 -122.584005 209 29ft 0kts
02-Aug-18 08:52 45.587620 -122.584005 209 29ft 0kts
02-Aug-18 08:53 45.587620 -122.584005 209 29ft 0kts
02-Aug-18 08:54 45.587620 -122.584005 209 29ft 0kts
02-Aug-18 08:55 45.587620 -122.584005 209 29ft 0kts
02-Aug-18 08:56 45.587620 -122.584005 209 29ft 0kts
02-Aug-18 08:57 45.587620 -122.584005 209 29ft 0kts
02-Aug-18 08:58 45.587620 -122.584005 209 29ft 0kts
02-Aug-18 08:59 45.587620 -122.584005 209 29ft 0kts
02-Aug-18 09:00 45.587620 -122.584005 209 29ft 0kts
02-Aug-18 09:01 45.587620 -122.584005 209 29ft 0kts
02-Aug-18 09:02 45.587582 -122.584030 194 29ft 1kts
02-Aug-18 09:03 45.587048 -122.582005 32 29ft 4kts
02-Aug-18 09:04 45.586444 -122.578581 30 28ft 10kts
02-Aug-18 09:05 45.585031 -122.573746 118 29ft 21kts
02-Aug-18 09:06 45.582762 -122.567388 48 29ft 0kts
02-Aug-18 09:07 45.582762 -122.567388 48 29ft 0kts
02-Aug-18 09:08 45.582762 -122.567388 48 29ft 0kts
02-Aug-18 09:09 45.582762 -122.567388 48 29ft 0kts
02-Aug-18 09:10 45.582762 -122.567388 48 29ft 0kts
02-Aug-18 09:11 45.582762 -122.567388 48 29ft 0kts
02-Aug-18 09:12 45.584310 -122.568728 299 29ft 36kts
02-Aug-18 09:13 45.598105 -122.608163 297 1324ft 146kts
02-Aug-18 09:14 45.619145 -122.666768 299 2983ft 182kts
02-Aug-18 09:15 45.641403 -122.722692 298 4698ft 179kts
02-Aug-18 09:16 45.671771 -122.768802 2 6694ft 184kts
02-Aug-18 09:17 45.723234 -122.748997 3 8293ft 191kts
02-Aug-18 09:18 45.774696 -122.739309 1 10121ft 188kts
02-Aug-18 09:19 45.826957 -122.729340 2 11764ft 194kts
02-Aug-18 09:20 45.881186 -122.718775 2 13268ft 201kts
02-Aug-18 09:21 45.937114 -122.707808 1 14627ft 207kts
02-Aug-18 09:22 45.994747 -122.696498 1 15906ft 214kts
02-Aug-18 09:23 46.059758 -122.683774 2 16168ft 260kts
02-Aug-18 09:24 46.123338 -122.683677 346 16210ft 269kts
02-Aug-18 09:25 46.198023 -122.698172 346 16222ft 275kts
02-Aug-18 09:26 46.273505 -122.713055 347 16230ft 277kts
02-Aug-18 09:27 46.349995 -122.723168 353 16229ft 279kts
02-Aug-18 09:28 46.427006 -122.726030 353 16234ft 279kts
02-Aug-18 09:29 46.504592 -122.728843 354 15757ft 295kts
02-Aug-18 09:30 46.582013 -122.731264 353 16031ft 280kts
02-Aug-18 09:31 46.659305 -122.734399 353 16034ft 280kts
02-Aug-18 09:32 46.736533 -122.737215 353 16048ft 279kts
02-Aug-18 09:33 46.808969 -122.708911 34 16042ft 289kts
02-Aug-18 09:34 46.871613 -122.637344 35 16046ft 289kts
02-Aug-18 09:35 46.935451 -122.565202 29 15412ft 297kts
02-Aug-18 09:36 47.011304 -122.529947 12 14009ft 282kts
02-Aug-18 09:37 47.083549 -122.499467 3 12519ft 268kts
02-Aug-18 09:38 47.153147 -122.486856 2 11113ft 263kts
02-Aug-18 09:39 47.223265 -122.475045 1 9663ft 259kts
02-Aug-18 09:40 47.276106 -122.466978 1 8560ft 258kts
02-Aug-18 09:41 47.327315 -122.459052 1 7935ft 233kts
02-Aug-18 09:42 47.380355 -122.455238 354 7837ft 205kts
02-Aug-18 09:43 47.424050 -122.455351 355 7316ft 224kts
02-Aug-18 09:44 47.470259 -122.455367 355 6229ft 227kts
02-Aug-18 09:45 47.519343 -122.455369 354 5856ft 199kts
02-Aug-18 09:46 47.564320 -122.455771 355 5859ft 205kts
02-Aug-18 09:47 47.619091 -122.456400 355 4916ft 209kts
02-Aug-18 09:48 47.667636 -122.429974 84 3915ft 208kts
02-Aug-18 09:49 47.673979 -122.362815 84 3962ft 174kts
02-Aug-18 09:50 47.658196 -122.315960 181 3992ft 138kts
02-Aug-18 09:51 47.622822 -122.316366 183 3605ft 115kts
02-Aug-18 09:52 47.594491 -122.316719 182 3037ft 105kts
02-Aug-18 09:53 47.565296 -122.316974 181 2444ft 105kts
02-Aug-18 09:54 47.536231 -122.317143 180 1870ft 104kts
02-Aug-18 09:55 47.507475 -122.317660 180 1308ft 103kts
02-Aug-18 09:56 47.479083 -122.317743 180 790ft 98kts
02-Aug-18 09:57 47.453902 -122.317924 180 439ft 60kts
02-Aug-18 09:58 47.446658 -122.314872 112 439ft 18kts
02-Aug-18 09:59 47.446478 -122.313936 110 439ft 8kts
02-Aug-18 10:00 47.442303 -122.313572 179 439ft 21kts
02-Aug-18 10:01 47.438110 -122.312720 93 439ft 0kts
02-Aug-18 10:02 47.438403 -122.313478 306 439ft 11kts
02-Aug-18 10:03 47.439284 -122.315133 38 438ft 0kts
02-Aug-18 10:04 47.439284 -122.315133 38 438ft 0kts
02-Aug-18 10:05 47.439284 -122.315133 38 438ft 0kts
02-Aug-18 10:06 47.439284 -122.315133 38 438ft 0kts
02-Aug-18 10:07 47.439284 -122.315133 38 438ft 0kts
02-Aug-18 10:08 47.439284 -122.315133 38 438ft 0kts
02-Aug-18 10:09 47.439284 -122.315133 38 438ft 0kts
02-Aug-18 10:10 47.439284 -122.315133 38 438ft 0kts
02-Aug-18 10:11 47.439284 -122.315133 38 438ft 0kts
02-Aug-18 10:12 47.439284 -122.315133 38 438ft 0kts
02-Aug-18 10:13 47.439284 -122.315133 38 438ft 0kts

Navigation Log

Ident Type
Flight plan parsing failed, navigation log unavailable